sensor_id;sensor_type;location;lat;lon;timestamp;P1;durP1;ratioP1;P2;durP2;ratioP2
7338;SDS011;33747;49.524;8.390;2022-12-18T00:02:07;74.05;;;25.77;;
7338;SDS011;33747;49.524;8.390;2022-12-18T00:04:33;65.50;;;26.05;;
7338;SDS011;33747;49.524;8.390;2022-12-18T00:06:58;66.60;;;26.33;;
7338;SDS011;33747;49.524;8.390;2022-12-18T00:09:23;83.10;;;31.17;;
7338;SDS011;33747;49.524;8.390;2022-12-18T00:11:49;77.32;;;27.80;;
7338;SDS011;33747;49.524;8.390;2022-12-18T00:14:15;66.25;;;26.85;;
7338;SDS011;33747;49.524;8.390;2022-12-18T00:16:42;66.28;;;28.75;;
7338;SDS011;33747;49.524;8.390;2022-12-18T00:19:08;74.47;;;27.83;;
7338;SDS011;33747;49.524;8.390;2022-12-18T00:21:35;87.43;;;27.60;;
7338;SDS011;33747;49.524;8.390;2022-12-18T00:24:00;102.07;;;29.52;;
7338;SDS011;33747;49.524;8.390;2022-12-18T00:26:27;67.82;;;26.25;;
7338;SDS011;33747;49.524;8.390;2022-12-18T00:28:54;80.60;;;28.30;;
7338;SDS011;33747;49.524;8.390;2022-12-18T00:31:23;59.90;;;25.02;;
7338;SDS011;33747;49.524;8.390;2022-12-18T00:33:49;60.53;;;24.85;;
7338;SDS011;33747;49.524;8.390;2022-12-18T00:36:18;59.97;;;25.50;;
7338;SDS011;33747;49.524;8.390;2022-12-18T00:38:45;60.47;;;27.08;;
7338;SDS011;33747;49.524;8.390;2022-12-18T00:41:12;84.28;;;29.13;;
7338;SDS011;33747;49.524;8.390;2022-12-18T00:43:38;72.90;;;27.40;;
7338;SDS011;33747;49.524;8.390;2022-12-18T00:46:04;86.55;;;27.92;;
7338;SDS011;33747;49.524;8.390;2022-12-18T00:48:30;123.28;;;27.92;;
7338;SDS011;33747;49.524;8.390;2022-12-18T00:50:55;209.05;;;28.85;;
7338;SDS011;33747;49.524;8.390;2022-12-18T00:53:21;70.68;;;27.77;;
7338;SDS011;33747;49.524;8.390;2022-12-18T00:55:46;83.15;;;26.75;;
7338;SDS011;33747;49.524;8.390;2022-12-18T00:58:12;77.25;;;28.00;;
7338;SDS011;33747;49.524;8.390;2022-12-18T01:00:39;73.10;;;28.80;;
7338;SDS011;33747;49.524;8.390;2022-12-18T01:03:05;74.80;;;29.27;;
7338;SDS011;33747;49.524;8.390;2022-12-18T01:05:30;79.07;;;29.25;;
7338;SDS011;33747;49.524;8.390;2022-12-18T01:07:56;144.77;;;32.58;;
7338;SDS011;33747;49.524;8.390;2022-12-18T01:10:22;114.43;;;30.40;;
7338;SDS011;33747;49.524;8.390;2022-12-18T01:12:47;82.85;;;26.70;;
7338;SDS011;33747;49.524;8.390;2022-12-18T01:15:13;75.65;;;27.98;;
7338;SDS011;33747;49.524;8.390;2022-12-18T01:17:39;82.15;;;25.02;;
7338;SDS011;33747;49.524;8.390;2022-12-18T01:20:04;72.28;;;28.95;;
7338;SDS011;33747;49.524;8.390;2022-12-18T01:22:30;77.38;;;26.25;;
7338;SDS011;33747;49.524;8.390;2022-12-18T01:24:55;104.35;;;25.65;;
7338;SDS011;33747;49.524;8.390;2022-12-18T01:27:21;72.55;;;26.10;;
7338;SDS011;33747;49.524;8.390;2022-12-18T01:29:46;70.95;;;27.05;;
7338;SDS011;33747;49.524;8.390;2022-12-18T01:32:12;82.30;;;29.33;;
7338;SDS011;33747;49.524;8.390;2022-12-18T01:34:37;66.45;;;25.40;;
7338;SDS011;33747;49.524;8.390;2022-12-18T01:37:03;210.00;;;27.52;;
7338;SDS011;33747;49.524;8.390;2022-12-18T01:39:29;78.22;;;26.25;;
7338;SDS011;33747;49.524;8.390;2022-12-18T01:41:54;120.63;;;25.27;;
7338;SDS011;33747;49.524;8.390;2022-12-18T01:47:31;183.30;;;29.45;;
7338;SDS011;33747;49.524;8.390;2022-12-18T01:53:17;75.93;;;26.67;;
7338;SDS011;33747;49.524;8.390;2022-12-18T01:55:55;70.45;;;27.73;;
7338;SDS011;33747;49.524;8.390;2022-12-18T02:01:08;64.18;;;24.42;;
7338;SDS011;33747;49.524;8.390;2022-12-18T02:03:34;84.80;;;26.38;;
7338;SDS011;33747;49.524;8.390;2022-12-18T02:06:01;114.35;;;22.73;;
7338;SDS011;33747;49.524;8.390;2022-12-18T02:08:44;77.07;;;28.48;;
7338;SDS011;33747;49.524;8.390;2022-12-18T02:22:44;47.65;;;19.67;;
7338;SDS011;33747;49.524;8.390;2022-12-18T02:27:58;78.38;;;26.48;;
7338;SDS011;33747;49.524;8.390;2022-12-18T02:30:25;66.80;;;25.83;;
7338;SDS011;33747;49.524;8.390;2022-12-18T02:32:52;65.15;;;25.75;;
7338;SDS011;33747;49.524;8.390;2022-12-18T02:35:24;70.97;;;26.45;;
7338;SDS011;33747;49.524;8.390;2022-12-18T02:37:51;72.50;;;25.75;;
7338;SDS011;33747;49.524;8.390;2022-12-18T02:40:18;67.03;;;26.20;;
7338;SDS011;33747;49.524;8.390;2022-12-18T02:42:44;80.45;;;29.60;;
7338;SDS011;33747;49.524;8.390;2022-12-18T02:45:09;72.35;;;27.58;;
7338;SDS011;33747;49.524;8.390;2022-12-18T02:47:39;68.85;;;25.77;;
7338;SDS011;33747;49.524;8.390;2022-12-18T02:50:14;71.20;;;23.88;;
7338;SDS011;33747;49.524;8.390;2022-12-18T03:01:40;63.25;;;25.17;;
7338;SDS011;33747;49.524;8.390;2022-12-18T03:04:26;62.45;;;24.55;;
7338;SDS011;33747;49.524;8.390;2022-12-18T03:06:54;64.35;;;25.27;;
7338;SDS011;33747;49.524;8.390;2022-12-18T03:09:24;61.50;;;25.10;;
7338;SDS011;33747;49.524;8.390;2022-12-18T03:11:54;62.72;;;24.25;;
7338;SDS011;33747;49.524;8.390;2022-12-18T03:14:40;73.63;;;26.52;;
7338;SDS011;33747;49.524;8.390;2022-12-18T03:17:07;65.75;;;26.08;;
7338;SDS011;33747;49.524;8.390;2022-12-18T03:19:35;57.08;;;24.25;;
7338;SDS011;33747;49.524;8.390;2022-12-18T03:22:04;55.65;;;24.17;;
7338;SDS011;33747;49.524;8.390;2022-12-18T03:24:30;70.45;;;23.92;;
7338;SDS011;33747;49.524;8.390;2022-12-18T03:27:03;60.30;;;24.17;;
7338;SDS011;33747;49.524;8.390;2022-12-18T03:29:36;66.53;;;25.75;;
7338;SDS011;33747;49.524;8.390;2022-12-18T03:32:10;64.38;;;24.75;;
7338;SDS011;33747;49.524;8.390;2022-12-18T03:34:37;55.88;;;23.85;;
7338;SDS011;33747;49.524;8.390;2022-12-18T03:37:05;66.75;;;24.90;;
7338;SDS011;33747;49.524;8.390;2022-12-18T03:39:31;63.28;;;24.80;;
7338;SDS011;33747;49.524;8.390;2022-12-18T03:42:01;60.08;;;24.13;;
7338;SDS011;33747;49.524;8.390;2022-12-18T03:44:53;66.80;;;25.75;;
7338;SDS011;33747;49.524;8.390;2022-12-18T03:47:27;60.88;;;25.33;;
7338;SDS011;33747;49.524;8.390;2022-12-18T03:49:56;62.25;;;25.50;;
7338;SDS011;33747;49.524;8.390;2022-12-18T03:52:33;70.90;;;26.45;;
7338;SDS011;33747;49.524;8.390;2022-12-18T03:55:02;65.38;;;24.33;;
7338;SDS011;33747;49.524;8.390;2022-12-18T03:57:28;74.90;;;25.95;;
7338;SDS011;33747;49.524;8.390;2022-12-18T03:59:56;62.05;;;25.52;;
7338;SDS011;33747;49.524;8.390;2022-12-18T04:02:24;64.32;;;24.80;;
7338;SDS011;33747;49.524;8.390;2022-12-18T04:04:51;57.78;;;24.55;;
7338;SDS011;33747;49.524;8.390;2022-12-18T04:07:17;64.55;;;25.05;;
7338;SDS011;33747;49.524;8.390;2022-12-18T04:09:43;59.85;;;25.02;;
7338;SDS011;33747;49.524;8.390;2022-12-18T04:12:10;70.50;;;27.10;;
7338;SDS011;33747;49.524;8.390;2022-12-18T04:14:36;59.53;;;23.50;;
7338;SDS011;33747;49.524;8.390;2022-12-18T04:17:01;61.58;;;25.02;;
7338;SDS011;33747;49.524;8.390;2022-12-18T04:19:27;69.35;;;26.15;;
7338;SDS011;33747;49.524;8.390;2022-12-18T04:21:53;75.68;;;25.67;;
7338;SDS011;33747;49.524;8.390;2022-12-18T04:24:18;65.45;;;26.33;;
7338;SDS011;33747;49.524;8.390;2022-12-18T04:26:44;66.15;;;25.40;;
7338;SDS011;33747;49.524;8.390;2022-12-18T04:29:09;64.22;;;26.13;;
7338;SDS011;33747;49.524;8.390;2022-12-18T04:31:34;67.80;;;24.38;;
7338;SDS011;33747;49.524;8.390;2022-12-18T04:34:00;66.35;;;25.63;;
7338;SDS011;33747;49.524;8.390;2022-12-18T04:36:25;73.45;;;27.52;;
7338;SDS011;33747;49.524;8.390;2022-12-18T04:38:51;65.47;;;26.38;;
7338;SDS011;33747;49.524;8.390;2022-12-18T04:41:16;65.47;;;26.08;;
7338;SDS011;33747;49.524;8.390;2022-12-18T04:43:41;68.00;;;26.08;;
7338;SDS011;33747;49.524;8.390;2022-12-18T04:46:07;69.75;;;26.17;;
7338;SDS011;33747;49.524;8.390;2022-12-18T04:48:33;64.93;;;22.50;;
7338;SDS011;33747;49.524;8.390;2022-12-18T04:50:59;73.35;;;26.27;;
7338;SDS011;33747;49.524;8.390;2022-12-18T04:53:24;71.03;;;24.67;;
7338;SDS011;33747;49.524;8.390;2022-12-18T04:55:49;61.83;;;24.63;;
7338;SDS011;33747;49.524;8.390;2022-12-18T04:58:15;74.72;;;26.13;;
7338;SDS011;33747;49.524;8.390;2022-12-18T05:00:40;59.83;;;24.00;;
7338;SDS011;33747;49.524;8.390;2022-12-18T05:03:06;61.47;;;22.75;;
7338;SDS011;33747;49.524;8.390;2022-12-18T05:05:31;65.35;;;24.08;;
7338;SDS011;33747;49.524;8.390;2022-12-18T05:07:59;71.72;;;25.67;;
7338;SDS011;33747;49.524;8.390;2022-12-18T05:10:25;63.85;;;24.17;;
7338;SDS011;33747;49.524;8.390;2022-12-18T05:12:50;71.35;;;26.02;;
7338;SDS011;33747;49.524;8.390;2022-12-18T05:15:28;70.47;;;24.10;;
7338;SDS011;33747;49.524;8.390;2022-12-18T05:17:54;65.07;;;25.20;;
7338;SDS011;33747;49.524;8.390;2022-12-18T05:20:20;67.47;;;25.63;;
7338;SDS011;33747;49.524;8.390;2022-12-18T05:22:45;70.25;;;26.10;;
7338;SDS011;33747;49.524;8.390;2022-12-18T05:25:11;59.92;;;25.73;;
7338;SDS011;33747;49.524;8.390;2022-12-18T05:27:36;65.15;;;26.10;;
7338;SDS011;33747;49.524;8.390;2022-12-18T05:30:01;63.97;;;25.42;;
7338;SDS011;33747;49.524;8.390;2022-12-18T05:32:27;60.20;;;24.60;;
7338;SDS011;33747;49.524;8.390;2022-12-18T05:34:53;82.30;;;26.40;;
7338;SDS011;33747;49.524;8.390;2022-12-18T05:37:18;61.30;;;24.67;;
7338;SDS011;33747;49.524;8.390;2022-12-18T05:39:43;81.05;;;27.30;;
7338;SDS011;33747;49.524;8.390;2022-12-18T05:42:09;85.68;;;27.17;;
7338;SDS011;33747;49.524;8.390;2022-12-18T05:44:34;69.68;;;24.05;;
7338;SDS011;33747;49.524;8.390;2022-12-18T05:47:00;69.00;;;25.80;;
7338;SDS011;33747;49.524;8.390;2022-12-18T05:49:25;67.05;;;25.95;;
7338;SDS011;33747;49.524;8.390;2022-12-18T05:51:51;74.85;;;26.52;;
7338;SDS011;33747;49.524;8.390;2022-12-18T05:54:16;67.03;;;24.55;;
7338;SDS011;33747;49.524;8.390;2022-12-18T05:56:41;61.85;;;23.67;;
7338;SDS011;33747;49.524;8.390;2022-12-18T05:59:07;81.57;;;27.23;;
7338;SDS011;33747;49.524;8.390;2022-12-18T06:01:32;73.38;;;26.38;;
7338;SDS011;33747;49.524;8.390;2022-12-18T06:03:58;87.22;;;25.92;;
7338;SDS011;33747;49.524;8.390;2022-12-18T06:06:24;76.60;;;25.70;;
7338;SDS011;33747;49.524;8.390;2022-12-18T06:08:51;76.40;;;26.08;;
7338;SDS011;33747;49.524;8.390;2022-12-18T06:11:17;81.60;;;28.88;;
7338;SDS011;33747;49.524;8.390;2022-12-18T06:13:44;79.65;;;27.58;;
7338;SDS011;33747;49.524;8.390;2022-12-18T06:16:09;80.22;;;27.05;;
7338;SDS011;33747;49.524;8.390;2022-12-18T06:18:35;73.22;;;27.13;;
7338;SDS011;33747;49.524;8.390;2022-12-18T06:21:00;73.25;;;26.88;;
7338;SDS011;33747;49.524;8.390;2022-12-18T06:23:26;73.28;;;26.30;;
7338;SDS011;33747;49.524;8.390;2022-12-18T06:25:52;78.05;;;26.95;;
7338;SDS011;33747;49.524;8.390;2022-12-18T06:28:17;75.00;;;28.98;;
7338;SDS011;33747;49.524;8.390;2022-12-18T06:30:43;69.43;;;25.50;;
7338;SDS011;33747;49.524;8.390;2022-12-18T06:33:09;73.57;;;27.45;;
7338;SDS011;33747;49.524;8.390;2022-12-18T06:35:34;77.43;;;27.88;;
7338;SDS011;33747;49.524;8.390;2022-12-18T06:38:00;79.65;;;26.67;;
7338;SDS011;33747;49.524;8.390;2022-12-18T06:40:26;108.55;;;27.23;;
7338;SDS011;33747;49.524;8.390;2022-12-18T06:42:51;71.20;;;26.50;;
7338;SDS011;33747;49.524;8.390;2022-12-18T06:45:17;77.95;;;26.10;;
7338;SDS011;33747;49.524;8.390;2022-12-18T06:47:42;77.57;;;25.08;;
7338;SDS011;33747;49.524;8.390;2022-12-18T06:50:08;85.68;;;26.27;;
7338;SDS011;33747;49.524;8.390;2022-12-18T06:52:33;69.28;;;24.02;;
7338;SDS011;33747;49.524;8.390;2022-12-18T06:54:59;76.20;;;25.50;;
7338;SDS011;33747;49.524;8.390;2022-12-18T06:57:24;93.55;;;28.05;;
7338;SDS011;33747;49.524;8.390;2022-12-18T06:59:50;84.78;;;26.30;;
7338;SDS011;33747;49.524;8.390;2022-12-18T07:02:15;73.95;;;27.27;;
7338;SDS011;33747;49.524;8.390;2022-12-18T07:04:40;88.18;;;27.38;;
7338;SDS011;33747;49.524;8.390;2022-12-18T07:07:06;83.60;;;27.38;;
7338;SDS011;33747;49.524;8.390;2022-12-18T07:09:31;70.70;;;24.48;;
7338;SDS011;33747;49.524;8.390;2022-12-18T07:11:57;60.65;;;23.73;;
7338;SDS011;33747;49.524;8.390;2022-12-18T07:14:22;88.05;;;25.00;;
7338;SDS011;33747;49.524;8.390;2022-12-18T07:16:47;76.53;;;23.55;;
7338;SDS011;33747;49.524;8.390;2022-12-18T07:19:13;71.15;;;25.58;;
7338;SDS011;33747;49.524;8.390;2022-12-18T07:21:38;106.97;;;26.80;;
7338;SDS011;33747;49.524;8.390;2022-12-18T07:24:04;83.65;;;27.33;;
7338;SDS011;33747;49.524;8.390;2022-12-18T07:26:29;69.30;;;25.00;;
7338;SDS011;33747;49.524;8.390;2022-12-18T07:28:55;71.85;;;27.17;;
7338;SDS011;33747;49.524;8.390;2022-12-18T07:31:22;88.10;;;27.63;;
7338;SDS011;33747;49.524;8.390;2022-12-18T07:33:47;109.93;;;25.40;;
7338;SDS011;33747;49.524;8.390;2022-12-18T07:36:13;71.10;;;27.42;;
7338;SDS011;33747;49.524;8.390;2022-12-18T07:38:39;94.13;;;26.27;;
7338;SDS011;33747;49.524;8.390;2022-12-18T07:41:05;84.95;;;27.98;;
7338;SDS011;33747;49.524;8.390;2022-12-18T07:43:35;74.47;;;27.77;;
7338;SDS011;33747;49.524;8.390;2022-12-18T07:46:00;70.03;;;26.65;;
7338;SDS011;33747;49.524;8.390;2022-12-18T07:48:26;80.57;;;27.58;;
7338;SDS011;33747;49.524;8.390;2022-12-18T07:50:52;81.65;;;29.60;;
7338;SDS011;33747;49.524;8.390;2022-12-18T07:53:18;69.07;;;26.67;;
7338;SDS011;33747;49.524;8.390;2022-12-18T07:55:43;71.45;;;28.45;;
7338;SDS011;33747;49.524;8.390;2022-12-18T07:58:08;74.00;;;27.75;;
7338;SDS011;33747;49.524;8.390;2022-12-18T08:00:34;79.60;;;28.30;;
7338;SDS011;33747;49.524;8.390;2022-12-18T08:03:00;75.50;;;27.73;;
7338;SDS011;33747;49.524;8.390;2022-12-18T08:05:25;70.68;;;27.33;;
7338;SDS011;33747;49.524;8.390;2022-12-18T08:07:51;80.68;;;27.88;;
7338;SDS011;33747;49.524;8.390;2022-12-18T08:10:16;74.38;;;26.30;;
7338;SDS011;33747;49.524;8.390;2022-12-18T08:12:41;74.50;;;28.40;;
7338;SDS011;33747;49.524;8.390;2022-12-18T08:15:07;80.85;;;28.83;;
7338;SDS011;33747;49.524;8.390;2022-12-18T08:17:33;74.82;;;26.23;;
7338;SDS011;33747;49.524;8.390;2022-12-18T08:19:58;78.47;;;28.70;;
7338;SDS011;33747;49.524;8.390;2022-12-18T08:22:23;68.40;;;27.30;;
7338;SDS011;33747;49.524;8.390;2022-12-18T08:24:49;76.15;;;30.20;;
7338;SDS011;33747;49.524;8.390;2022-12-18T08:27:14;80.45;;;28.30;;
7338;SDS011;33747;49.524;8.390;2022-12-18T08:29:40;67.13;;;28.27;;
7338;SDS011;33747;49.524;8.390;2022-12-18T08:32:05;73.90;;;30.80;;
7338;SDS011;33747;49.524;8.390;2022-12-18T08:34:30;70.15;;;27.98;;
7338;SDS011;33747;49.524;8.390;2022-12-18T08:36:56;88.72;;;31.02;;
7338;SDS011;33747;49.524;8.390;2022-12-18T08:39:21;78.50;;;29.77;;
7338;SDS011;33747;49.524;8.390;2022-12-18T08:41:47;83.88;;;30.67;;
7338;SDS011;33747;49.524;8.390;2022-12-18T08:44:32;84.93;;;31.20;;
7338;SDS011;33747;49.524;8.390;2022-12-18T08:47:04;88.53;;;30.98;;
7338;SDS011;33747;49.524;8.390;2022-12-18T08:49:33;82.65;;;30.55;;
7338;SDS011;33747;49.524;8.390;2022-12-18T08:51:58;80.20;;;30.23;;
7338;SDS011;33747;49.524;8.390;2022-12-18T08:54:24;79.65;;;28.98;;
7338;SDS011;33747;49.524;8.390;2022-12-18T08:56:50;83.57;;;30.98;;
7338;SDS011;33747;49.524;8.390;2022-12-18T08:59:16;81.13;;;29.02;;
7338;SDS011;33747;49.524;8.390;2022-12-18T09:01:41;73.10;;;30.15;;
7338;SDS011;33747;49.524;8.390;2022-12-18T09:04:07;82.72;;;30.52;;
7338;SDS011;33747;49.524;8.390;2022-12-18T09:06:33;81.68;;;30.67;;
7338;SDS011;33747;49.524;8.390;2022-12-18T09:08:59;77.22;;;30.27;;
7338;SDS011;33747;49.524;8.390;2022-12-18T09:11:25;78.97;;;30.80;;
7338;SDS011;33747;49.524;8.390;2022-12-18T09:13:51;77.45;;;30.85;;
7338;SDS011;33747;49.524;8.390;2022-12-18T09:16:17;64.40;;;28.42;;
7338;SDS011;33747;49.524;8.390;2022-12-18T09:18:44;68.43;;;28.55;;
7338;SDS011;33747;49.524;8.390;2022-12-18T09:21:13;59.90;;;25.40;;
7338;SDS011;33747;49.524;8.390;2022-12-18T09:23:40;71.18;;;26.25;;
7338;SDS011;33747;49.524;8.390;2022-12-18T09:26:06;66.18;;;27.92;;
7338;SDS011;33747;49.524;8.390;2022-12-18T09:28:31;76.55;;;29.20;;
7338;SDS011;33747;49.524;8.390;2022-12-18T09:30:57;79.30;;;30.73;;
7338;SDS011;33747;49.524;8.390;2022-12-18T09:33:22;76.28;;;29.30;;
7338;SDS011;33747;49.524;8.390;2022-12-18T09:35:47;78.70;;;29.58;;
7338;SDS011;33747;49.524;8.390;2022-12-18T09:38:14;73.03;;;29.50;;
7338;SDS011;33747;49.524;8.390;2022-12-18T09:40:44;72.70;;;29.75;;
7338;SDS011;33747;49.524;8.390;2022-12-18T09:43:57;74.38;;;29.00;;
7338;SDS011;33747;49.524;8.390;2022-12-18T09:46:07;73.85;;;28.58;;
7338;SDS011;33747;49.524;8.390;2022-12-18T09:48:35;76.40;;;28.73;;
7338;SDS011;33747;49.524;8.390;2022-12-18T09:51:05;61.10;;;26.90;;
7338;SDS011;33747;49.524;8.390;2022-12-18T09:53:53;78.10;;;29.65;;
7338;SDS011;33747;49.524;8.390;2022-12-18T09:56:22;66.50;;;28.40;;
7338;SDS011;33747;49.524;8.390;2022-12-18T09:58:57;71.45;;;28.30;;
7338;SDS011;33747;49.524;8.390;2022-12-18T10:01:24;70.30;;;28.30;;
7338;SDS011;33747;49.524;8.390;2022-12-18T10:03:49;63.67;;;27.17;;
7338;SDS011;33747;49.524;8.390;2022-12-18T10:08:56;65.35;;;26.60;;
7338;SDS011;33747;49.524;8.390;2022-12-18T10:14:06;73.72;;;29.25;;
7338;SDS011;33747;49.524;8.390;2022-12-18T10:16:57;70.30;;;27.25;;
7338;SDS011;33747;49.524;8.390;2022-12-18T10:22:21;74.28;;;28.38;;
7338;SDS011;33747;49.524;8.390;2022-12-18T10:27:52;86.45;;;32.72;;
7338;SDS011;33747;49.524;8.390;2022-12-18T10:30:21;81.53;;;30.23;;
7338;SDS011;33747;49.524;8.390;2022-12-18T10:32:47;77.93;;;30.20;;
7338;SDS011;33747;49.524;8.390;2022-12-18T10:35:23;67.03;;;28.38;;
7338;SDS011;33747;49.524;8.390;2022-12-18T10:38:25;75.55;;;28.90;;
7338;SDS011;33747;49.524;8.390;2022-12-18T10:40:52;78.90;;;31.17;;
7338;SDS011;33747;49.524;8.390;2022-12-18T10:43:28;76.88;;;30.42;;
7338;SDS011;33747;49.524;8.390;2022-12-18T10:51:08;76.13;;;30.05;;
7338;SDS011;33747;49.524;8.390;2022-12-18T10:53:34;84.93;;;32.30;;
7338;SDS011;33747;49.524;8.390;2022-12-18T10:56:02;84.50;;;31.35;;
7338;SDS011;33747;49.524;8.390;2022-12-18T10:58:33;82.50;;;30.85;;
7338;SDS011;33747;49.524;8.390;2022-12-18T11:03:37;74.82;;;31.27;;
7338;SDS011;33747;49.524;8.390;2022-12-18T11:08:36;78.63;;;32.00;;
7338;SDS011;33747;49.524;8.390;2022-12-18T11:11:02;77.47;;;32.92;;
7338;SDS011;33747;49.524;8.390;2022-12-18T11:13:30;78.63;;;31.08;;
7338;SDS011;33747;49.524;8.390;2022-12-18T11:15:56;78.70;;;32.80;;
7338;SDS011;33747;49.524;8.390;2022-12-18T11:18:29;83.50;;;32.65;;
7338;SDS011;33747;49.524;8.390;2022-12-18T11:20:58;78.28;;;32.00;;
7338;SDS011;33747;49.524;8.390;2022-12-18T11:23:26;76.07;;;32.47;;
7338;SDS011;33747;49.524;8.390;2022-12-18T11:25:53;76.80;;;32.25;;
7338;SDS011;33747;49.524;8.390;2022-12-18T11:33:41;88.93;;;33.95;;
7338;SDS011;33747;49.524;8.390;2022-12-18T11:36:08;91.00;;;35.05;;
7338;SDS011;33747;49.524;8.390;2022-12-18T11:38:38;82.72;;;35.42;;
7338;SDS011;33747;49.524;8.390;2022-12-18T11:41:07;79.53;;;34.25;;
7338;SDS011;33747;49.524;8.390;2022-12-18T11:44:26;80.28;;;32.28;;
7338;SDS011;33747;49.524;8.390;2022-12-18T11:47:08;85.40;;;36.65;;
7338;SDS011;33747;49.524;8.390;2022-12-18T11:49:38;71.32;;;32.67;;
7338;SDS011;33747;49.524;8.390;2022-12-18T11:52:22;81.72;;;33.50;;
7338;SDS011;33747;49.524;8.390;2022-12-18T11:54:52;75.72;;;33.10;;
7338;SDS011;33747;49.524;8.390;2022-12-18T12:00:12;75.15;;;31.05;;
7338;SDS011;33747;49.524;8.390;2022-12-18T12:05:29;97.45;;;36.15;;
7338;SDS011;33747;49.524;8.390;2022-12-18T12:08:08;85.97;;;33.40;;
7338;SDS011;33747;49.524;8.390;2022-12-18T12:10:47;87.50;;;35.65;;
7338;SDS011;33747;49.524;8.390;2022-12-18T12:26:32;78.85;;;33.47;;
7338;SDS011;33747;49.524;8.390;2022-12-18T12:35:15;83.97;;;33.75;;
7338;SDS011;33747;49.524;8.390;2022-12-18T12:38:54;85.65;;;37.80;;
7338;SDS011;33747;49.524;8.390;2022-12-18T12:41:03;90.47;;;37.17;;
7338;SDS011;33747;49.524;8.390;2022-12-18T12:43:34;96.10;;;42.10;;
7338;SDS011;33747;49.524;8.390;2022-12-18T12:46:04;97.32;;;39.85;;
7338;SDS011;33747;49.524;8.390;2022-12-18T12:51:02;87.30;;;37.70;;
7338;SDS011;33747;49.524;8.390;2022-12-18T12:53:34;84.43;;;35.75;;
7338;SDS011;33747;49.524;8.390;2022-12-18T12:56:01;88.28;;;36.53;;
7338;SDS011;33747;49.524;8.390;2022-12-18T13:01:04;87.53;;;36.00;;
7338;SDS011;33747;49.524;8.390;2022-12-18T13:03:42;75.85;;;33.53;;
7338;SDS011;33747;49.524;8.390;2022-12-18T13:09:05;80.78;;;34.08;;
7338;SDS011;33747;49.524;8.390;2022-12-18T13:11:41;84.40;;;36.60;;
7338;SDS011;33747;49.524;8.390;2022-12-18T13:14:27;79.30;;;35.08;;
7338;SDS011;33747;49.524;8.390;2022-12-18T13:20:06;74.25;;;34.15;;
7338;SDS011;33747;49.524;8.390;2022-12-18T13:22:37;81.28;;;35.95;;
7338;SDS011;33747;49.524;8.390;2022-12-18T13:25:26;80.88;;;33.33;;
7338;SDS011;33747;49.524;8.390;2022-12-18T13:28:00;87.78;;;36.67;;
7338;SDS011;33747;49.524;8.390;2022-12-18T13:40:57;85.88;;;38.00;;
7338;SDS011;33747;49.524;8.390;2022-12-18T13:43:27;84.68;;;38.33;;
7338;SDS011;33747;49.524;8.390;2022-12-18T13:46:01;78.28;;;34.45;;
7338;SDS011;33747;49.524;8.390;2022-12-18T13:48:29;90.97;;;38.88;;
7338;SDS011;33747;49.524;8.390;2022-12-18T13:50:58;89.90;;;38.92;;
7338;SDS011;33747;49.524;8.390;2022-12-18T13:53:27;83.40;;;36.50;;
7338;SDS011;33747;49.524;8.390;2022-12-18T13:55:54;85.85;;;38.15;;
7338;SDS011;33747;49.524;8.390;2022-12-18T13:58:20;85.03;;;35.92;;
7338;SDS011;33747;49.524;8.390;2022-12-18T14:00:45;77.82;;;34.92;;
7338;SDS011;33747;49.524;8.390;2022-12-18T14:03:24;79.43;;;36.42;;
7338;SDS011;33747;49.524;8.390;2022-12-18T14:05:53;77.95;;;34.30;;
7338;SDS011;33747;49.524;8.390;2022-12-18T14:08:32;55.67;;;26.80;;
7338;SDS011;33747;49.524;8.390;2022-12-18T14:10:59;73.90;;;33.55;;
7338;SDS011;33747;49.524;8.390;2022-12-18T14:13:29;77.13;;;33.78;;
7338;SDS011;33747;49.524;8.390;2022-12-18T14:15:56;74.50;;;32.92;;
7338;SDS011;33747;49.524;8.390;2022-12-18T14:21:20;76.53;;;33.83;;
7338;SDS011;33747;49.524;8.390;2022-12-18T14:23:47;69.07;;;32.45;;
7338;SDS011;33747;49.524;8.390;2022-12-18T14:26:28;77.47;;;36.17;;
7338;SDS011;33747;49.524;8.390;2022-12-18T14:28:56;76.72;;;33.00;;
7338;SDS011;33747;49.524;8.390;2022-12-18T14:31:23;79.47;;;33.67;;
7338;SDS011;33747;49.524;8.390;2022-12-18T14:33:50;74.63;;;34.75;;
7338;SDS011;33747;49.524;8.390;2022-12-18T14:36:17;74.90;;;35.33;;
7338;SDS011;33747;49.524;8.390;2022-12-18T14:38:48;82.30;;;35.03;;
7338;SDS011;33747;49.524;8.390;2022-12-18T14:41:19;80.07;;;34.97;;
7338;SDS011;33747;49.524;8.390;2022-12-18T14:43:50;73.88;;;32.75;;
7338;SDS011;33747;49.524;8.390;2022-12-18T14:48:57;79.75;;;33.95;;
7338;SDS011;33747;49.524;8.390;2022-12-18T14:51:24;79.28;;;33.40;;
7338;SDS011;33747;49.524;8.390;2022-12-18T14:53:54;81.25;;;37.50;;
7338;SDS011;33747;49.524;8.390;2022-12-18T14:56:26;81.65;;;34.45;;
7338;SDS011;33747;49.524;8.390;2022-12-18T14:58:57;89.63;;;35.17;;
7338;SDS011;33747;49.524;8.390;2022-12-18T15:01:25;82.32;;;37.17;;
7338;SDS011;33747;49.524;8.390;2022-12-18T15:03:53;90.20;;;37.38;;
7338;SDS011;33747;49.524;8.390;2022-12-18T15:06:24;89.07;;;38.38;;
7338;SDS011;33747;49.524;8.390;2022-12-18T15:08:52;89.60;;;38.78;;
7338;SDS011;33747;49.524;8.390;2022-12-18T15:11:25;99.18;;;43.75;;
7338;SDS011;33747;49.524;8.390;2022-12-18T15:16:57;95.13;;;41.42;;
7338;SDS011;33747;49.524;8.390;2022-12-18T15:19:38;83.82;;;39.40;;
7338;SDS011;33747;49.524;8.390;2022-12-18T15:22:12;88.40;;;42.60;;
7338;SDS011;33747;49.524;8.390;2022-12-18T15:24:41;92.85;;;39.47;;
7338;SDS011;33747;49.524;8.390;2022-12-18T15:27:18;88.20;;;39.47;;
7338;SDS011;33747;49.524;8.390;2022-12-18T15:32:38;84.40;;;38.10;;
7338;SDS011;33747;49.524;8.390;2022-12-18T15:37:39;99.03;;;43.50;;
7338;SDS011;33747;49.524;8.390;2022-12-18T15:40:05;92.75;;;41.53;;
7338;SDS011;33747;49.524;8.390;2022-12-18T15:42:31;86.82;;;40.13;;
7338;SDS011;33747;49.524;8.390;2022-12-18T15:45:15;94.07;;;41.58;;
7338;SDS011;33747;49.524;8.390;2022-12-18T15:47:40;89.88;;;39.55;;
7338;SDS011;33747;49.524;8.390;2022-12-18T15:50:08;94.30;;;40.13;;
7338;SDS011;33747;49.524;8.390;2022-12-18T15:52:38;79.18;;;35.90;;
7338;SDS011;33747;49.524;8.390;2022-12-18T15:55:08;79.40;;;37.80;;
7338;SDS011;33747;49.524;8.390;2022-12-18T15:57:57;94.70;;;40.83;;
7338;SDS011;33747;49.524;8.390;2022-12-18T16:00:22;81.90;;;37.92;;
7338;SDS011;33747;49.524;8.390;2022-12-18T16:02:47;81.57;;;37.72;;
7338;SDS011;33747;49.524;8.390;2022-12-18T16:05:13;86.90;;;39.78;;
7338;SDS011;33747;49.524;8.390;2022-12-18T16:07:40;82.68;;;38.50;;
7338;SDS011;33747;49.524;8.390;2022-12-18T16:10:05;88.47;;;38.72;;
7338;SDS011;33747;49.524;8.390;2022-12-18T16:12:31;85.00;;;38.88;;
7338;SDS011;33747;49.524;8.390;2022-12-18T16:14:57;91.10;;;41.00;;
7338;SDS011;33747;49.524;8.390;2022-12-18T16:17:22;84.75;;;40.00;;
7338;SDS011;33747;49.524;8.390;2022-12-18T16:19:47;81.47;;;39.00;;
7338;SDS011;33747;49.524;8.390;2022-12-18T16:22:17;79.82;;;37.58;;
7338;SDS011;33747;49.524;8.390;2022-12-18T16:24:46;76.22;;;37.17;;
7338;SDS011;33747;49.524;8.390;2022-12-18T16:27:12;70.18;;;35.65;;
7338;SDS011;33747;49.524;8.390;2022-12-18T16:29:37;79.20;;;37.88;;
7338;SDS011;33747;49.524;8.390;2022-12-18T16:32:03;80.43;;;39.25;;
7338;SDS011;33747;49.524;8.390;2022-12-18T16:34:29;92.35;;;41.30;;
7338;SDS011;33747;49.524;8.390;2022-12-18T16:37:15;90.72;;;41.60;;
7338;SDS011;33747;49.524;8.390;2022-12-18T16:39:41;89.22;;;41.17;;
7338;SDS011;33747;49.524;8.390;2022-12-18T16:42:11;86.05;;;36.08;;